OISA  Abadeh  Airport

Abadeh, Iran

Add Bookmark
ICAO OISA
Type Airport
Status Operational
Latitude
31° 10' 0" N
31.166668
Longitude
52° 40' 0" E
52.666668
Local (GMT +4.5 ) UTC
Apr 29, 2016 10:23 pm Apr 29, 2016 17:53
Sunrise-Sunset Local UTC
Begin Civil Twilight 05:48 am 01:18
Sunrise 06:14 am 01:44
Sunset 07:38 pm 15:08
End Civil Twilight 08:04 pm 15:34
VFR
VFR
MVFR
MVFR
IFR
IFR
LIFR
LIFR
Unknown
Unavailable

Current Weather

METAR Observed VFR
OISA 291655Z 25010KT CAVOK 19/M04 Q1018 Fri, Apr 29, 2016 @ 16:55 UTC
(58 Minutes ago)
Visual Flight Rules
Wind Visibility Conditions
250° at 10 knots (19 kph) 10 km or more
  • No significant weather
Temperatures Readings Precipitation
Current Temp
19°C
66°F
Dewpoint
-4°C
25°F
Humidity 21%
Altimeter 30.06" Hg
Sea Level Pressure 1,018 mb
Field Elevation
2,004 m
6,575 ft
None Recorded
-
-

CheckWX.com is intended as a tool to help pilots better visualize weather data. It is not intended as a substitute for an official weather briefing obtained from a Flight Service Station. CheckWX.com does not meet the FAA requirements for an official pre-flight weather briefing. Therefore, it's important that pilots still call and obtain an official FSS pre-flight weather briefing.

© 2007-2016 CheckWX.com
17:53:38 UTC